sensor_id;sensor_type;location;lat;lon;timestamp;temperature;humidity
44509;DHT22;30214;52.246;14.408;2023-04-15T00:00:19;9.30;99.90
44509;DHT22;30214;52.246;14.408;2023-04-15T00:02:46;9.30;99.90
44509;DHT22;30214;52.246;14.408;2023-04-15T00:05:14;9.30;99.90
44509;DHT22;30214;52.246;14.408;2023-04-15T00:07:42;9.40;99.90
44509;DHT22;30214;52.246;14.408;2023-04-15T00:10:10;9.40;99.90
44509;DHT22;30214;52.246;14.408;2023-04-15T00:12:38;9.40;99.90
44509;DHT22;30214;52.246;14.408;2023-04-15T00:15:07;9.50;99.90
44509;DHT22;30214;52.246;14.408;2023-04-15T00:17:35;9.50;99.90
44509;DHT22;30214;52.246;14.408;2023-04-15T00:20:04;9.40;99.90
44509;DHT22;30214;52.246;14.408;2023-04-15T00:22:32;9.40;99.90
44509;DHT22;30214;52.246;14.408;2023-04-15T00:24:59;9.40;99.90
44509;DHT22;30214;52.246;14.408;2023-04-15T00:27:28;9.40;99.90
44509;DHT22;30214;52.246;14.408;2023-04-15T00:29:56;9.40;99.90
44509;DHT22;30214;52.246;14.408;2023-04-15T00:32:23;9.40;99.90
44509;DHT22;30214;52.246;14.408;2023-04-15T00:34:50;9.40;99.90
44509;DHT22;30214;52.246;14.408;2023-04-15T00:37:18;9.40;99.90
44509;DHT22;30214;52.246;14.408;2023-04-15T00:39:45;9.30;99.90
44509;DHT22;30214;52.246;14.408;2023-04-15T00:42:12;9.30;99.90
44509;DHT22;30214;52.246;14.408;2023-04-15T00:44:39;9.40;99.90
44509;DHT22;30214;52.246;14.408;2023-04-15T00:47:08;9.40;99.90
44509;DHT22;30214;52.246;14.408;2023-04-15T00:49:36;9.40;99.90
44509;DHT22;30214;52.246;14.408;2023-04-15T00:52:03;9.50;99.90
44509;DHT22;30214;52.246;14.408;2023-04-15T00:54:31;9.50;99.90
44509;DHT22;30214;52.246;14.408;2023-04-15T00:56:58;9.50;99.90
44509;DHT22;30214;52.246;14.408;2023-04-15T00:59:25;9.40;99.90
44509;DHT22;30214;52.246;14.408;2023-04-15T01:01:53;9.40;99.90
44509;DHT22;30214;52.246;14.408;2023-04-15T01:04:21;9.30;99.90
44509;DHT22;30214;52.246;14.408;2023-04-15T01:06:48;9.40;99.90
44509;DHT22;30214;52.246;14.408;2023-04-15T01:09:17;9.40;99.90
44509;DHT22;30214;52.246;14.408;2023-04-15T01:11:48;9.50;99.90
44509;DHT22;30214;52.246;14.408;2023-04-15T01:14:23;9.50;99.90
44509;DHT22;30214;52.246;14.408;2023-04-15T01:16:51;9.50;99.90
44509;DHT22;30214;52.246;14.408;2023-04-15T01:19:19;9.50;99.90
44509;DHT22;30214;52.246;14.408;2023-04-15T01:21:47;9.50;99.90
44509;DHT22;30214;52.246;14.408;2023-04-15T01:24:17;9.50;99.90
44509;DHT22;30214;52.246;14.408;2023-04-15T01:26:46;9.50;99.90
44509;DHT22;30214;52.246;14.408;2023-04-15T01:29:14;9.50;99.90
44509;DHT22;30214;52.246;14.408;2023-04-15T01:31:48;9.40;99.90
44509;DHT22;30214;52.246;14.408;2023-04-15T01:34:17;9.50;99.90
44509;DHT22;30214;52.246;14.408;2023-04-15T01:36:44;9.50;99.90
44509;DHT22;30214;52.246;14.408;2023-04-15T01:39:13;9.50;99.90
44509;DHT22;30214;52.246;14.408;2023-04-15T01:41:40;9.60;99.90
44509;DHT22;30214;52.246;14.408;2023-04-15T01:44:09;9.60;99.90
44509;DHT22;30214;52.246;14.408;2023-04-15T01:46:38;9.60;99.90
44509;DHT22;30214;52.246;14.408;2023-04-15T01:49:06;9.60;99.90
44509;DHT22;30214;52.246;14.408;2023-04-15T01:51:33;9.60;99.90
44509;DHT22;30214;52.246;14.408;2023-04-15T01:54:00;9.50;99.90
44509;DHT22;30214;52.246;14.408;2023-04-15T01:56:27;9.50;99.90
44509;DHT22;30214;52.246;14.408;2023-04-15T01:58:54;9.50;99.90
44509;DHT22;30214;52.246;14.408;2023-04-15T02:01:23;9.50;99.90
44509;DHT22;30214;52.246;14.408;2023-04-15T02:03:50;9.50;99.90
44509;DHT22;30214;52.246;14.408;2023-04-15T02:06:17;9.60;99.90
44509;DHT22;30214;52.246;14.408;2023-04-15T02:08:44;9.60;99.90
44509;DHT22;30214;52.246;14.408;2023-04-15T02:11:11;9.50;99.90
44509;DHT22;30214;52.246;14.408;2023-04-15T02:13:38;9.50;99.90
44509;DHT22;30214;52.246;14.408;2023-04-15T02:16:15;9.50;99.90
44509;DHT22;30214;52.246;14.408;2023-04-15T02:18:44;9.60;99.90
44509;DHT22;30214;52.246;14.408;2023-04-15T02:21:12;9.60;99.90
44509;DHT22;30214;52.246;14.408;2023-04-15T02:23:40;9.60;99.90
44509;DHT22;30214;52.246;14.408;2023-04-15T02:26:12;9.60;99.90
44509;DHT22;30214;52.246;14.408;2023-04-15T02:28:39;9.60;99.90
44509;DHT22;30214;52.246;14.408;2023-04-15T02:31:06;9.60;99.90
44509;DHT22;30214;52.246;14.408;2023-04-15T02:33:34;9.60;99.90
44509;DHT22;30214;52.246;14.408;2023-04-15T02:36:03;9.60;99.90
44509;DHT22;30214;52.246;14.408;2023-04-15T02:38:31;9.60;99.90
44509;DHT22;30214;52.246;14.408;2023-04-15T02:40:58;9.60;99.90
44509;DHT22;30214;52.246;14.408;2023-04-15T02:43:25;9.60;99.90
44509;DHT22;30214;52.246;14.408;2023-04-15T02:45:52;9.60;99.90
44509;DHT22;30214;52.246;14.408;2023-04-15T02:48:19;9.70;99.90
44509;DHT22;30214;52.246;14.408;2023-04-15T02:50:46;9.70;99.90
44509;DHT22;30214;52.246;14.408;2023-04-15T02:53:16;9.70;99.90
44509;DHT22;30214;52.246;14.408;2023-04-15T02:55:44;9.70;99.90
44509;DHT22;30214;52.246;14.408;2023-04-15T02:58:11;9.60;99.90
44509;DHT22;30214;52.246;14.408;2023-04-15T03:00:39;9.60;99.90
44509;DHT22;30214;52.246;14.408;2023-04-15T03:03:06;9.60;99.90
44509;DHT22;30214;52.246;14.408;2023-04-15T03:05:33;9.60;99.90
44509;DHT22;30214;52.246;14.408;2023-04-15T03:08:03;9.60;99.90
44509;DHT22;30214;52.246;14.408;2023-04-15T03:10:31;9.60;99.90
44509;DHT22;30214;52.246;14.408;2023-04-15T03:13:00;9.50;99.90
44509;DHT22;30214;52.246;14.408;2023-04-15T03:15:27;9.50;99.90
44509;DHT22;30214;52.246;14.408;2023-04-15T03:17:55;9.50;99.90
44509;DHT22;30214;52.246;14.408;2023-04-15T03:20:22;9.60;99.90
44509;DHT22;30214;52.246;14.408;2023-04-15T03:22:49;9.60;99.90
44509;DHT22;30214;52.246;14.408;2023-04-15T03:25:18;9.50;99.90
44509;DHT22;30214;52.246;14.408;2023-04-15T03:27:46;9.50;99.90
44509;DHT22;30214;52.246;14.408;2023-04-15T03:30:13;9.50;99.90
44509;DHT22;30214;52.246;14.408;2023-04-15T03:32:41;9.50;99.90
44509;DHT22;30214;52.246;14.408;2023-04-15T03:35:08;9.50;99.90
44509;DHT22;30214;52.246;14.408;2023-04-15T03:37:35;9.50;99.90
44509;DHT22;30214;52.246;14.408;2023-04-15T03:40:02;9.50;99.90
44509;DHT22;30214;52.246;14.408;2023-04-15T03:42:30;9.40;99.90
44509;DHT22;30214;52.246;14.408;2023-04-15T03:44:58;9.50;99.90
44509;DHT22;30214;52.246;14.408;2023-04-15T03:47:28;9.40;99.90
44509;DHT22;30214;52.246;14.408;2023-04-15T03:49:55;9.40;99.90
44509;DHT22;30214;52.246;14.408;2023-04-15T03:52:22;9.50;99.90
44509;DHT22;30214;52.246;14.408;2023-04-15T03:54:49;9.50;99.90
44509;DHT22;30214;52.246;14.408;2023-04-15T03:57:16;9.50;99.90
44509;DHT22;30214;52.246;14.408;2023-04-15T03:59:43;9.50;99.90
44509;DHT22;30214;52.246;14.408;2023-04-15T04:02:11;9.40;99.90
44509;DHT22;30214;52.246;14.408;2023-04-15T04:04:38;9.50;99.90
44509;DHT22;30214;52.246;14.408;2023-04-15T04:07:05;9.40;99.90
44509;DHT22;30214;52.246;14.408;2023-04-15T04:09:32;9.30;99.90
44509;DHT22;30214;52.246;14.408;2023-04-15T04:11:59;9.40;99.90
44509;DHT22;30214;52.246;14.408;2023-04-15T04:14:27;9.40;99.90
44509;DHT22;30214;52.246;14.408;2023-04-15T04:16:55;9.30;99.90
44509;DHT22;30214;52.246;14.408;2023-04-15T04:19:23;9.40;99.90
44509;DHT22;30214;52.246;14.408;2023-04-15T04:21:51;9.40;99.90
44509;DHT22;30214;52.246;14.408;2023-04-15T04:24:18;9.40;99.90
44509;DHT22;30214;52.246;14.408;2023-04-15T04:26:45;9.50;99.90
44509;DHT22;30214;52.246;14.408;2023-04-15T04:29:13;9.40;99.90
44509;DHT22;30214;52.246;14.408;2023-04-15T04:31:40;9.40;99.90
44509;DHT22;30214;52.246;14.408;2023-04-15T04:34:07;9.40;99.90
44509;DHT22;30214;52.246;14.408;2023-04-15T04:36:38;9.40;99.90
44509;DHT22;30214;52.246;14.408;2023-04-15T04:39:05;9.40;99.90
44509;DHT22;30214;52.246;14.408;2023-04-15T04:41:32;9.40;99.90
44509;DHT22;30214;52.246;14.408;2023-04-15T04:44:00;9.40;99.90
44509;DHT22;30214;52.246;14.408;2023-04-15T04:46:27;9.30;99.90
44509;DHT22;30214;52.246;14.408;2023-04-15T04:48:54;9.30;99.90
44509;DHT22;30214;52.246;14.408;2023-04-15T04:51:21;9.30;99.90
44509;DHT22;30214;52.246;14.408;2023-04-15T04:53:49;9.30;99.90
44509;DHT22;30214;52.246;14.408;2023-04-15T04:56:16;9.30;99.90
44509;DHT22;30214;52.246;14.408;2023-04-15T04:58:43;9.20;99.90
44509;DHT22;30214;52.246;14.408;2023-04-15T05:01:11;9.20;99.90
44509;DHT22;30214;52.246;14.408;2023-04-15T05:03:38;9.20;99.90
44509;DHT22;30214;52.246;14.408;2023-04-15T05:06:06;9.20;99.90
44509;DHT22;30214;52.246;14.408;2023-04-15T05:08:33;9.30;99.90
44509;DHT22;30214;52.246;14.408;2023-04-15T05:11:02;9.30;99.90
44509;DHT22;30214;52.246;14.408;2023-04-15T05:13:29;9.30;99.90
44509;DHT22;30214;52.246;14.408;2023-04-15T05:15:56;9.30;99.90
44509;DHT22;30214;52.246;14.408;2023-04-15T05:18:23;9.40;99.90
44509;DHT22;30214;52.246;14.408;2023-04-15T05:20:50;9.30;99.90
44509;DHT22;30214;52.246;14.408;2023-04-15T05:23:17;9.30;99.90
44509;DHT22;30214;52.246;14.408;2023-04-15T05:25:44;9.30;99.90
44509;DHT22;30214;52.246;14.408;2023-04-15T05:28:13;9.30;99.90
44509;DHT22;30214;52.246;14.408;2023-04-15T05:30:40;9.30;99.90
44509;DHT22;30214;52.246;14.408;2023-04-15T05:33:08;9.30;99.90
44509;DHT22;30214;52.246;14.408;2023-04-15T05:35:35;9.30;99.90
44509;DHT22;30214;52.246;14.408;2023-04-15T05:38:02;9.20;99.90
44509;DHT22;30214;52.246;14.408;2023-04-15T05:40:29;9.20;99.90
44509;DHT22;30214;52.246;14.408;2023-04-15T05:42:56;9.20;99.90
44509;DHT22;30214;52.246;14.408;2023-04-15T05:45:25;9.20;99.90
44509;DHT22;30214;52.246;14.408;2023-04-15T05:47:52;9.20;99.90
44509;DHT22;30214;52.246;14.408;2023-04-15T05:50:19;9.20;99.90
44509;DHT22;30214;52.246;14.408;2023-04-15T05:52:46;9.20;99.90
44509;DHT22;30214;52.246;14.408;2023-04-15T05:55:13;9.20;99.90
44509;DHT22;30214;52.246;14.408;2023-04-15T05:57:40;9.20;99.90
44509;DHT22;30214;52.246;14.408;2023-04-15T06:00:08;9.20;99.90
44509;DHT22;30214;52.246;14.408;2023-04-15T06:02:38;9.20;99.90
44509;DHT22;30214;52.246;14.408;2023-04-15T06:05:08;9.10;99.90
44509;DHT22;30214;52.246;14.408;2023-04-15T06:07:36;9.20;99.90
44509;DHT22;30214;52.246;14.408;2023-04-15T06:10:05;9.20;99.90
44509;DHT22;30214;52.246;14.408;2023-04-15T06:12:33;9.30;99.90
44509;DHT22;30214;52.246;14.408;2023-04-15T06:15:00;9.30;99.90
44509;DHT22;30214;52.246;14.408;2023-04-15T06:17:27;9.20;99.90
44509;DHT22;30214;52.246;14.408;2023-04-15T06:19:56;9.30;99.90
44509;DHT22;30214;52.246;14.408;2023-04-15T06:22:23;9.20;99.90
44509;DHT22;30214;52.246;14.408;2023-04-15T06:24:50;9.20;99.90
44509;DHT22;30214;52.246;14.408;2023-04-15T06:27:18;9.20;99.90
44509;DHT22;30214;52.246;14.408;2023-04-15T06:29:45;9.10;99.90
44509;DHT22;30214;52.246;14.408;2023-04-15T06:32:12;9.10;99.90
44509;DHT22;30214;52.246;14.408;2023-04-15T06:34:39;9.10;99.90
44509;DHT22;30214;52.246;14.408;2023-04-15T06:37:07;9.10;99.90
44509;DHT22;30214;52.246;14.408;2023-04-15T06:39:35;9.20;99.90
44509;DHT22;30214;52.246;14.408;2023-04-15T06:42:02;9.10;99.90
44509;DHT22;30214;52.246;14.408;2023-04-15T06:44:30;9.10;99.90
44509;DHT22;30214;52.246;14.408;2023-04-15T06:46:57;9.10;99.90
44509;DHT22;30214;52.246;14.408;2023-04-15T06:49:24;9.10;99.90
44509;DHT22;30214;52.246;14.408;2023-04-15T06:51:51;9.10;99.90
44509;DHT22;30214;52.246;14.408;2023-04-15T06:54:20;9.10;99.90
44509;DHT22;30214;52.246;14.408;2023-04-15T06:56:47;9.10;99.90
44509;DHT22;30214;52.246;14.408;2023-04-15T06:59:14;9.10;99.90
44509;DHT22;30214;52.246;14.408;2023-04-15T07:01:41;9.10;99.90
44509;DHT22;30214;52.246;14.408;2023-04-15T07:04:08;9.10;99.90
44509;DHT22;30214;52.246;14.408;2023-04-15T07:06:35;9.00;99.90
44509;DHT22;30214;52.246;14.408;2023-04-15T07:09:03;9.00;99.90
44509;DHT22;30214;52.246;14.408;2023-04-15T07:11:31;9.00;99.90
44509;DHT22;30214;52.246;14.408;2023-04-15T07:13:58;9.10;99.90
44509;DHT22;30214;52.246;14.408;2023-04-15T07:16:25;9.00;99.90
44509;DHT22;30214;52.246;14.408;2023-04-15T07:18:53;9.00;99.90
44509;DHT22;30214;52.246;14.408;2023-04-15T07:21:20;9.00;99.90
44509;DHT22;30214;52.246;14.408;2023-04-15T07:23:47;9.00;99.90
44509;DHT22;30214;52.246;14.408;2023-04-15T07:26:14;9.10;99.90
44509;DHT22;30214;52.246;14.408;2023-04-15T07:28:42;9.10;99.90
44509;DHT22;30214;52.246;14.408;2023-04-15T07:31:11;9.20;99.90
44509;DHT22;30214;52.246;14.408;2023-04-15T07:33:39;9.10;99.90
44509;DHT22;30214;52.246;14.408;2023-04-15T07:36:06;9.10;99.90
44509;DHT22;30214;52.246;14.408;2023-04-15T07:38:33;9.10;99.90
44509;DHT22;30214;52.246;14.408;2023-04-15T07:41:00;9.10;99.90
44509;DHT22;30214;52.246;14.408;2023-04-15T07:43:28;9.00;99.90
44509;DHT22;30214;52.246;14.408;2023-04-15T07:45:56;9.00;99.90
44509;DHT22;30214;52.246;14.408;2023-04-15T07:48:23;9.00;99.90
44509;DHT22;30214;52.246;14.408;2023-04-15T07:50:50;9.00;99.90
44509;DHT22;30214;52.246;14.408;2023-04-15T07:53:20;9.00;99.90
44509;DHT22;30214;52.246;14.408;2023-04-15T07:55:48;9.00;99.90
44509;DHT22;30214;52.246;14.408;2023-04-15T07:58:15;9.00;99.90
44509;DHT22;30214;52.246;14.408;2023-04-15T08:00:45;9.10;99.90
44509;DHT22;30214;52.246;14.408;2023-04-15T08:03:13;9.10;99.90
44509;DHT22;30214;52.246;14.408;2023-04-15T08:05:40;9.20;99.90
44509;DHT22;30214;52.246;14.408;2023-04-15T08:08:07;9.30;99.90
44509;DHT22;30214;52.246;14.408;2023-04-15T08:10:34;9.20;99.90
44509;DHT22;30214;52.246;14.408;2023-04-15T08:13:02;9.20;99.90
44509;DHT22;30214;52.246;14.408;2023-04-15T08:15:29;9.30;99.90
44509;DHT22;30214;52.246;14.408;2023-04-15T08:17:57;9.30;99.90
44509;DHT22;30214;52.246;14.408;2023-04-15T08:20:26;9.40;99.90
44509;DHT22;30214;52.246;14.408;2023-04-15T08:22:53;9.40;99.90
44509;DHT22;30214;52.246;14.408;2023-04-15T08:25:20;9.30;99.90
44509;DHT22;30214;52.246;14.408;2023-04-15T08:27:47;9.30;99.90
44509;DHT22;30214;52.246;14.408;2023-04-15T08:30:15;9.30;99.90
44509;DHT22;30214;52.246;14.408;2023-04-15T08:32:44;9.30;99.90
44509;DHT22;30214;52.246;14.408;2023-04-15T08:35:12;9.30;99.90
44509;DHT22;30214;52.246;14.408;2023-04-15T08:37:41;9.40;99.90
44509;DHT22;30214;52.246;14.408;2023-04-15T08:40:09;9.30;99.90
44509;DHT22;30214;52.246;14.408;2023-04-15T08:42:42;9.30;99.90
44509;DHT22;30214;52.246;14.408;2023-04-15T08:45:10;9.20;99.90
44509;DHT22;30214;52.246;14.408;2023-04-15T08:47:38;9.20;99.90
44509;DHT22;30214;52.246;14.408;2023-04-15T08:50:08;9.20;99.90
44509;DHT22;30214;52.246;14.408;2023-04-15T08:52:36;9.20;99.90
44509;DHT22;30214;52.246;14.408;2023-04-15T08:55:07;9.20;99.90
44509;DHT22;30214;52.246;14.408;2023-04-15T08:57:36;9.20;99.90
44509;DHT22;30214;52.246;14.408;2023-04-15T09:00:05;9.10;99.90
44509;DHT22;30214;52.246;14.408;2023-04-15T09:02:34;9.10;99.90
44509;DHT22;30214;52.246;14.408;2023-04-15T09:05:01;9.10;99.90
44509;DHT22;30214;52.246;14.408;2023-04-15T09:07:33;9.10;99.90
44509;DHT22;30214;52.246;14.408;2023-04-15T09:10:01;9.10;99.90
44509;DHT22;30214;52.246;14.408;2023-04-15T09:12:32;9.20;99.90
44509;DHT22;30214;52.246;14.408;2023-04-15T09:15:00;9.20;99.90
44509;DHT22;30214;52.246;14.408;2023-04-15T09:17:27;9.20;99.90
44509;DHT22;30214;52.246;14.408;2023-04-15T09:20:07;9.20;99.90
44509;DHT22;30214;52.246;14.408;2023-04-15T09:22:35;9.20;99.90
44509;DHT22;30214;52.246;14.408;2023-04-15T09:25:03;9.20;99.90
44509;DHT22;30214;52.246;14.408;2023-04-15T09:27:54;9.20;99.90
44509;DHT22;30214;52.246;14.408;2023-04-15T09:30:27;9.20;99.90
44509;DHT22;30214;52.246;14.408;2023-04-15T09:32:56;9.30;99.90
44509;DHT22;30214;52.246;14.408;2023-04-15T09:35:25;9.30;99.90
44509;DHT22;30214;52.246;14.408;2023-04-15T09:38:02;9.40;99.90
44509;DHT22;30214;52.246;14.408;2023-04-15T09:40:35;9.50;99.90
44509;DHT22;30214;52.246;14.408;2023-04-15T09:43:09;9.50;99.90
44509;DHT22;30214;52.246;14.408;2023-04-15T09:45:46;9.50;99.90
44509;DHT22;30214;52.246;14.408;2023-04-15T09:48:18;9.60;99.90
44509;DHT22;30214;52.246;14.408;2023-04-15T09:50:47;9.60;99.90
44509;DHT22;30214;52.246;14.408;2023-04-15T09:53:19;9.50;99.90
44509;DHT22;30214;52.246;14.408;2023-04-15T09:55:49;9.60;99.90
44509;DHT22;30214;52.246;14.408;2023-04-15T09:58:22;9.70;99.90
44509;DHT22;30214;52.246;14.408;2023-04-15T10:00:53;9.70;99.90
44509;DHT22;30214;52.246;14.408;2023-04-15T10:03:25;9.70;99.90
44509;DHT22;30214;52.246;14.408;2023-04-15T10:06:01;9.60;99.90
44509;DHT22;30214;52.246;14.408;2023-04-15T10:08:32;9.60;99.90
44509;DHT22;30214;52.246;14.408;2023-04-15T10:11:03;9.70;99.90
44509;DHT22;30214;52.246;14.408;2023-04-15T10:13:40;9.70;99.90
44509;DHT22;30214;52.246;14.408;2023-04-15T10:16:11;9.80;99.90
44509;DHT22;30214;52.246;14.408;2023-04-15T10:18:46;9.70;99.90
44509;DHT22;30214;52.246;14.408;2023-04-15T10:21:19;9.80;99.90
44509;DHT22;30214;52.246;14.408;2023-04-15T10:23:49;9.90;99.90
44509;DHT22;30214;52.246;14.408;2023-04-15T10:26:20;9.90;99.90
44509;DHT22;30214;52.246;14.408;2023-04-15T10:28:51;9.90;99.90
44509;DHT22;30214;52.246;14.408;2023-04-15T10:31:19;9.80;99.90
44509;DHT22;30214;52.246;14.408;2023-04-15T10:33:47;9.90;99.90
44509;DHT22;30214;52.246;14.408;2023-04-15T10:36:15;9.90;99.90
44509;DHT22;30214;52.246;14.408;2023-04-15T10:38:43;10.00;99.90
44509;DHT22;30214;52.246;14.408;2023-04-15T10:41:12;10.00;99.90
44509;DHT22;30214;52.246;14.408;2023-04-15T10:43:46;10.10;99.90
44509;DHT22;30214;52.246;14.408;2023-04-15T10:46:18;10.10;99.90
44509;DHT22;30214;52.246;14.408;2023-04-15T10:48:47;10.10;99.90
44509;DHT22;30214;52.246;14.408;2023-04-15T10:51:16;10.20;99.90
44509;DHT22;30214;52.246;14.408;2023-04-15T10:53:55;10.30;99.90
44509;DHT22;30214;52.246;14.408;2023-04-15T10:56:24;10.50;99.90
44509;DHT22;30214;52.246;14.408;2023-04-15T10:58:52;10.50;99.90
44509;DHT22;30214;52.246;14.408;2023-04-15T11:01:21;10.50;99.90
44509;DHT22;30214;52.246;14.408;2023-04-15T11:03:48;10.50;99.90
44509;DHT22;30214;52.246;14.408;2023-04-15T11:06:16;10.50;99.90
44509;DHT22;30214;52.246;14.408;2023-04-15T11:08:54;10.40;99.90
44509;DHT22;30214;52.246;14.408;2023-04-15T11:12:06;10.50;99.90
44509;DHT22;30214;52.246;14.408;2023-04-15T11:14:38;10.50;99.90
44509;DHT22;30214;52.246;14.408;2023-04-15T11:17:07;10.60;99.90
44509;DHT22;30214;52.246;14.408;2023-04-15T11:19:35;10.60;99.90
44509;DHT22;30214;52.246;14.408;2023-04-15T11:22:07;10.70;99.90
44509;DHT22;30214;52.246;14.408;2023-04-15T11:24:35;10.70;99.90
44509;DHT22;30214;52.246;14.408;2023-04-15T11:27:02;10.60;99.90
44509;DHT22;30214;52.246;14.408;2023-04-15T11:29:31;10.70;99.90
44509;DHT22;30214;52.246;14.408;2023-04-15T11:32:04;10.70;99.90
44509;DHT22;30214;52.246;14.408;2023-04-15T11:34:32;10.80;99.90
44509;DHT22;30214;52.246;14.408;2023-04-15T11:37:03;10.80;99.90
44509;DHT22;30214;52.246;14.408;2023-04-15T11:39:36;10.80;99.90
44509;DHT22;30214;52.246;14.408;2023-04-15T11:42:15;10.80;99.90
44509;DHT22;30214;52.246;14.408;2023-04-15T11:44:44;10.90;99.90
44509;DHT22;30214;52.246;14.408;2023-04-15T11:47:21;10.90;99.90
44509;DHT22;30214;52.246;14.408;2023-04-15T11:49:49;11.00;99.90
44509;DHT22;30214;52.246;14.408;2023-04-15T11:52:16;11.00;99.90
44509;DHT22;30214;52.246;14.408;2023-04-15T11:54:43;11.00;99.90
44509;DHT22;30214;52.246;14.408;2023-04-15T11:57:10;11.10;99.90
44509;DHT22;30214;52.246;14.408;2023-04-15T11:59:41;11.10;99.90
44509;DHT22;30214;52.246;14.408;2023-04-15T12:02:12;11.20;99.90
44509;DHT22;30214;52.246;14.408;2023-04-15T12:04:39;11.20;99.90
44509;DHT22;30214;52.246;14.408;2023-04-15T12:07:06;11.10;99.90
44509;DHT22;30214;52.246;14.408;2023-04-15T12:09:37;11.20;99.90
44509;DHT22;30214;52.246;14.408;2023-04-15T12:12:05;11.30;99.90
44509;DHT22;30214;52.246;14.408;2023-04-15T12:14:32;11.40;99.90
44509;DHT22;30214;52.246;14.408;2023-04-15T12:17:01;11.50;99.90
44509;DHT22;30214;52.246;14.408;2023-04-15T12:19:33;11.50;99.90
44509;DHT22;30214;52.246;14.408;2023-04-15T12:22:03;11.50;99.90
44509;DHT22;30214;52.246;14.408;2023-04-15T12:24:34;11.50;99.90
44509;DHT22;30214;52.246;14.408;2023-04-15T12:27:03;11.50;99.90
44509;DHT22;30214;52.246;14.408;2023-04-15T12:29:34;11.40;99.90
44509;DHT22;30214;52.246;14.408;2023-04-15T12:32:05;11.40;99.90
44509;DHT22;30214;52.246;14.408;2023-04-15T12:34:36;11.30;99.90
44509;DHT22;30214;52.246;14.408;2023-04-15T12:37:06;11.30;99.90
44509;DHT22;30214;52.246;14.408;2023-04-15T12:39:36;11.40;99.90
44509;DHT22;30214;52.246;14.408;2023-04-15T12:42:05;11.40;99.90
44509;DHT22;30214;52.246;14.408;2023-04-15T12:44:33;11.40;99.90
44509;DHT22;30214;52.246;14.408;2023-04-15T12:47:01;11.50;99.90
44509;DHT22;30214;52.246;14.408;2023-04-15T12:49:28;11.60;99.90
44509;DHT22;30214;52.246;14.408;2023-04-15T12:51:59;11.70;99.90
44509;DHT22;30214;52.246;14.408;2023-04-15T12:54:27;11.90;99.90
44509;DHT22;30214;52.246;14.408;2023-04-15T12:56:55;11.90;99.90
44509;DHT22;30214;52.246;14.408;2023-04-15T12:59:23;12.00;99.90
44509;DHT22;30214;52.246;14.408;2023-04-15T13:01:51;11.90;99.90
44509;DHT22;30214;52.246;14.408;2023-04-15T13:04:19;11.90;99.90
44509;DHT22;30214;52.246;14.408;2023-04-15T13:06:47;11.90;99.90
44509;DHT22;30214;52.246;14.408;2023-04-15T13:09:15;11.90;99.90
44509;DHT22;30214;52.246;14.408;2023-04-15T13:11:42;11.90;99.90
44509;DHT22;30214;52.246;14.408;2023-04-15T13:14:10;11.90;99.90
44509;DHT22;30214;52.246;14.408;2023-04-15T13:16:37;12.00;99.90
44509;DHT22;30214;52.246;14.408;2023-04-15T13:19:05;12.00;99.90
44509;DHT22;30214;52.246;14.408;2023-04-15T13:21:32;11.90;99.90
44509;DHT22;30214;52.246;14.408;2023-04-15T13:24:00;11.80;99.90
44509;DHT22;30214;52.246;14.408;2023-04-15T13:26:29;11.70;99.90
44509;DHT22;30214;52.246;14.408;2023-04-15T13:28:56;11.80;99.90
44509;DHT22;30214;52.246;14.408;2023-04-15T13:31:23;12.00;99.90
44509;DHT22;30214;52.246;14.408;2023-04-15T13:33:50;12.00;99.90
44509;DHT22;30214;52.246;14.408;2023-04-15T13:36:18;11.90;99.90
44509;DHT22;30214;52.246;14.408;2023-04-15T13:38:45;11.90;99.90
44509;DHT22;30214;52.246;14.408;2023-04-15T13:41:13;11.80;99.90
44509;DHT22;30214;52.246;14.408;2023-04-15T13:43:42;11.90;99.90
44509;DHT22;30214;52.246;14.408;2023-04-15T13:46:09;12.00;99.90
44509;DHT22;30214;52.246;14.408;2023-04-15T13:48:37;12.00;99.90
44509;DHT22;30214;52.246;14.408;2023-04-15T13:51:04;12.00;99.90
44509;DHT22;30214;52.246;14.408;2023-04-15T13:53:31;12.00;99.90
44509;DHT22;30214;52.246;14.408;2023-04-15T13:55:58;12.00;99.90
44509;DHT22;30214;52.246;14.408;2023-04-15T13:58:25;12.00;99.90
44509;DHT22;30214;52.246;14.408;2023-04-15T14:00:54;12.10;99.90
44509;DHT22;30214;52.246;14.408;2023-04-15T14:03:21;12.10;99.90
44509;DHT22;30214;52.246;14.408;2023-04-15T14:05:48;12.10;99.90
44509;DHT22;30214;52.246;14.408;2023-04-15T14:08:20;12.20;99.90
44509;DHT22;30214;52.246;14.408;2023-04-15T14:10:47;12.30;99.90
44509;DHT22;30214;52.246;14.408;2023-04-15T14:13:14;12.30;99.90
44509;DHT22;30214;52.246;14.408;2023-04-15T14:15:41;12.40;99.90
44509;DHT22;30214;52.246;14.408;2023-04-15T14:18:10;12.40;99.90
44509;DHT22;30214;52.246;14.408;2023-04-15T14:20:37;12.40;99.90
44509;DHT22;30214;52.246;14.408;2023-04-15T14:23:04;12.30;99.90
44509;DHT22;30214;52.246;14.408;2023-04-15T14:25:31;12.30;99.90
44509;DHT22;30214;52.246;14.408;2023-04-15T14:27:58;12.30;99.90
44509;DHT22;30214;52.246;14.408;2023-04-15T14:30:25;12.30;99.90
44509;DHT22;30214;52.246;14.408;2023-04-15T14:32:52;12.40;99.90
44509;DHT22;30214;52.246;14.408;2023-04-15T14:35:21;12.50;99.90
44509;DHT22;30214;52.246;14.408;2023-04-15T14:37:49;12.30;99.90
44509;DHT22;30214;52.246;14.408;2023-04-15T14:40:16;12.30;99.90
44509;DHT22;30214;52.246;14.408;2023-04-15T14:42:43;12.20;99.90
44509;DHT22;30214;52.246;14.408;2023-04-15T14:45:11;12.10;99.90
44509;DHT22;30214;52.246;14.408;2023-04-15T14:47:38;12.10;99.90
44509;DHT22;30214;52.246;14.408;2023-04-15T14:50:07;12.10;99.90
44509;DHT22;30214;52.246;14.408;2023-04-15T14:52:38;12.00;99.90
44509;DHT22;30214;52.246;14.408;2023-04-15T14:55:06;12.00;99.90
44509;DHT22;30214;52.246;14.408;2023-04-15T14:57:35;12.10;99.90
44509;DHT22;30214;52.246;14.408;2023-04-15T15:00:05;12.10;99.90
44509;DHT22;30214;52.246;14.408;2023-04-15T15:02:33;12.00;99.90
44509;DHT22;30214;52.246;14.408;2023-04-15T15:05:01;11.90;99.90
44509;DHT22;30214;52.246;14.408;2023-04-15T15:07:29;12.00;99.90
44509;DHT22;30214;52.246;14.408;2023-04-15T15:09:58;12.00;99.90
44509;DHT22;30214;52.246;14.408;2023-04-15T15:12:25;11.90;99.90
44509;DHT22;30214;52.246;14.408;2023-04-15T15:14:56;11.90;99.90
44509;DHT22;30214;52.246;14.408;2023-04-15T15:17:24;11.80;99.90
44509;DHT22;30214;52.246;14.408;2023-04-15T15:19:54;11.80;99.90
44509;DHT22;30214;52.246;14.408;2023-04-15T15:22:22;11.90;99.90
44509;DHT22;30214;52.246;14.408;2023-04-15T15:24:51;11.90;99.90
44509;DHT22;30214;52.246;14.408;2023-04-15T15:27:23;11.90;99.90
44509;DHT22;30214;52.246;14.408;2023-04-15T15:29:55;11.90;99.90
44509;DHT22;30214;52.246;14.408;2023-04-15T15:32:24;11.80;99.90